Welcome to the updated website with new and more accurate equipment. Established 2007


Active alerts


No alerts

Mount Mesnard more information Mount Mesnard


Lower Harbor more information Lower Harbor


Visit our other weather sites:

Template documentation
and downloads

And another site


CBI


Nearby METAR Reports

   
KSAW - Sawyer, Michigan
Updated: 18-10-2017 01:16
Clear  
Clear  
   Wind: South 6.9 mph
Wind: South 6.9 mph
Temperature: 48.2°F
Wind Chill: 44.6°F
Dew Point: 44.6°F
Humidity: 87%
Barometer: 29.96 inHg
Clouds: Clear
Visibility: 10 mi
Cloud details: Clear
KSAW 180516Z AUTO 19006KT 10SM CLR 09/07 A2996 RMK AO2 T00870068
KESC - Escanaba, Michigan
Updated: 18-10-2017 00:56
Clear  
Clear  
   Wind: SSW 6.9 mph
Wind: SSW 6.9 mph
Temperature: 53.6°F
Dew Point: 51.8°F
Humidity: 94%
Barometer: 29.98 inHg
Clouds: Clear
Visibility: 10 mi
Cloud details: Clear
KESC 180456Z AUTO 21006KT 10SM CLR 12/11 A2998 RMK AO2 SLP176 T01220111 401720067
KIMT - Iron Mountain, MI
Updated: 18-10-2017 00:54
Clear  
Clear  
   Wind: SE 3.5 mph
Wind: SE 3.5 mph
Temperature: 48.2°F
Wind Chill: 46.4°F
Dew Point: 42.8°F
Humidity: 82%
Barometer: 29.96 inHg
Clouds: Clear
Visibility: 10 mi
Cloud details: Clear
KIMT 180454Z AUTO 13003KT 10SM CLR 09/06 A2996 RMK AO2 SLP148 T00940061
KGRB - Green Bay, WI
Updated: 18-10-2017 00:53
Clear  
Clear  
   Wind: SSW 8.1 mph
Wind: SSW 8.1 mph
Temperature: 55.4°F
Dew Point: 48.2°F
Humidity: 77%
Barometer: 30.02 inHg
Clouds: Clear
Visibility: 10 mi
Cloud details: Clear
KGRB 180453Z AUTO 21007KT 10SM CLR 13/09 A3002 RMK AO2 SLP166 T01330089
KDET - Detroit, MI
Updated: 18-10-2017 00:53
Clear  
Clear  
   Wind: SW 10.4 mph
Wind: SW 10.4 mph
Temperature: 55.4°F
Dew Point: 41°F
Humidity: 59%
Barometer: 30.2 inHg
Clouds: Clear
Visibility: 10 mi
Cloud details: Clear
KDET 180453Z 23009KT 10SM CLR 13/05 A3020 RMK AO2 SLP225 T01280050 402000067
 

Script developed by  Saratoga-weather.org Adapted for the template by  Weerstation Leuven

You find our weather info also at:

Weather Underground

Midwestern Weather Network

WeatherlinkIP

Citizen Weather Observer Program (CWOP)

Equipment we use:

Weather-station
Davis VP2

Weather-program
Davis Weatherlink.Com

Davis VP2

Davis Weatherlink.Com